TimeEDT,TemperatureF,Dew PointF,Humidity,Sea Level PressureIn,VisibilityMPH,Wind Direction,Wind SpeedMPH,Gust SpeedMPH,PrecipitationIn,Events,Conditions,WindDirDegrees,DateUTC
12:58 AM,63.3,60.8,91,30.17,10.0,SSW,2.3,-,N/A,,Overcast,200,2013-09-10 04:58:00
1:58 AM,65.1,61.7,89,30.15,10.0,South,4.6,-,N/A,,Overcast,190,2013-09-10 05:58:00
2:03 AM,64.4,62.6,94,30.13,10.0,South,4.6,-,N/A,,Overcast,180,2013-09-10 06:03:00
2:32 AM,66.2,62.6,88,30.14,10.0,South,5.8,-,N/A,,Overcast,190,2013-09-10 06:32:00
2:58 AM,66.2,62.4,88,30.15,10.0,SSW,5.8,-,N/A,,Overcast,200,2013-09-10 06:58:00
3:58 AM,66.7,62.8,87,30.14,10.0,South,5.8,-,N/A,,Overcast,190,2013-09-10 07:58:00
4:58 AM,67.3,63.7,88,30.14,10.0,SSW,6.9,-,N/A,,Overcast,210,2013-09-10 08:58:00
5:08 AM,68.0,64.4,88,30.14,10.0,SSW,5.8,-,N/A,,Overcast,210,2013-09-10 09:08:00
5:58 AM,67.5,64.4,90,30.16,10.0,SW,3.5,-,N/A,,Overcast,220,2013-09-10 09:58:00
6:39 AM,68.0,64.4,88,30.16,10.0,SSW,6.9,-,N/A,,Overcast,200,2013-09-10 10:39:00
6:58 AM,67.5,65.1,92,30.16,10.0,South,6.9,-,N/A,,Overcast,190,2013-09-10 10:58:00
7:28 AM,68.0,66.2,94,30.15,10.0,SSW,8.1,-,N/A,,Overcast,210,2013-09-10 11:28:00
7:58 AM,69.8,66.7,90,30.16,10.0,SSW,5.8,-,N/A,,Scattered Clouds,210,2013-09-10 11:58:00
7:59 AM,69.8,66.2,88,30.15,10.0,SW,5.8,-,N/A,,Mostly Cloudy,220,2013-09-10 11:59:00
8:05 AM,69.8,68.0,94,30.15,10.0,SSW,8.1,-,N/A,,Mostly Cloudy,210,2013-09-10 12:05:00
8:58 AM,71.6,68.0,88,30.17,10.0,SW,8.1,-,N/A,,Overcast,230,2013-09-10 12:58:00
9:35 AM,73.4,68.0,83,30.18,10.0,WSW,10.4,-,N/A,,Overcast,250,2013-09-10 13:35:00
9:51 AM,75.2,69.8,83,30.18,10.0,WSW,11.5,-,N/A,,Mostly Cloudy,250,2013-09-10 13:51:00
9:58 AM,75.7,68.9,79,30.19,10.0,WSW,8.1,-,N/A,,Mostly Cloudy,250,2013-09-10 13:58:00
10:12 AM,75.2,69.8,83,30.18,10.0,WSW,12.7,-,N/A,,Mostly Cloudy,240,2013-09-10 14:12:00
10:58 AM,76.8,69.1,77,30.17,10.0,WSW,13.8,-,N/A,,Overcast,250,2013-09-10 14:58:00
11:51 AM,80.6,69.8,70,30.14,10.0,West,10.4,-,N/A,,Scattered Clouds,260,2013-09-10 15:51:00
11:58 AM,80.8,69.8,69,30.16,10.0,West,9.2,-,N/A,,Scattered Clouds,260,2013-09-10 15:58:00
12:01 PM,80.6,69.8,70,30.15,10.0,WSW,9.2,-,N/A,,Mostly Cloudy,250,2013-09-10 16:01:00
12:13 PM,80.6,69.8,70,30.14,10.0,West,8.1,-,N/A,,Scattered Clouds,260,2013-09-10 16:13:00
12:58 PM,82.9,70.5,66,30.12,10.0,SW,11.5,-,N/A,,Partly Cloudy,230,2013-09-10 16:58:00
1:58 PM,86.4,71.2,61,30.09,10.0,WSW,10.4,-,N/A,,Clear,240,2013-09-10 17:58:00
2:58 PM,87.3,72.0,60,30.09,10.0,WSW,10.4,-,N/A,,Scattered Clouds,240,2013-09-10 18:58:00
3:58 PM,87.1,72.1,61,30.08,10.0,SW,12.7,-,N/A,,Partly Cloudy,220,2013-09-10 19:58:00
4:58 PM,87.3,72.5,61,30.07,10.0,SW,11.5,-,N/A,,Scattered Clouds,230,2013-09-10 20:58:00
5:58 PM,85.5,72.3,65,30.07,10.0,WSW,13.8,-,N/A,,Clear,240,2013-09-10 21:58:00
6:58 PM,81.7,72.9,74,30.08,10.0,SW,6.9,-,N/A,,Clear,230,2013-09-10 22:58:00
7:58 PM,78.4,72.7,82,30.09,10.0,SSW,6.9,-,N/A,,Clear,200,2013-09-10 23:58:00
8:58 PM,77.4,72.1,84,30.11,10.0,SSW,4.6,-,N/A,,Clear,200,2013-09-11 00:58:00
9:58 PM,75.7,72.1,89,30.12,10.0,SSW,6.9,-,N/A,,Clear,200,2013-09-11 01:58:00
10:58 PM,75.4,72.0,89,30.13,10.0,SSW,9.2,-,N/A,,Clear,210,2013-09-11 02:58:00
11:58 PM,74.5,71.6,91,30.13,10.0,SW,6.9,-,N/A,,Clear,220,2013-09-11 03:58:00